Time;durP1;ratioP1;P1;durP2;ratioP2;P2;SDS_P1;SDS_P2;PMS_P1;PMS_P2;Temp;Humidity;BMP_temperature;BMP_pressure;BME280_temperature;BME280_humidity;BME280_pressure;Samples;Min_cycle;Max_cycle;Signal;HPM_P1;HPM_P2
2021/07/12 17:37:04;;;;;;;12.75;4.28;;;;;;;23.00;80.77;100327.20;5133500;54;59468;-83
2021/07/12 17:42:11;;;;;;;8.58;4.55;;;;;;;22.93;80.61;100316.91;4925587;58;1136755;-78
2021/07/12 17:47:17;;;;;;;5.35;3.40;;;;;;;22.91;80.41;100312.78;4941695;58;1138771;-80
2021/07/12 17:52:24;;;;;;;7.17;2.67;;;;;;;22.67;79.99;100321.69;4942565;58;1138749;-79
2021/07/12 17:57:30;;;;;;;8.70;3.37;;;;;;;22.58;80.47;100331.52;4963847;58;1138720;-78
2021/07/12 18:02:36;;;;;;;3.02;2.62;;;;;;;22.46;79.98;100332.07;4984643;57;1138666;-81
2021/07/12 18:07:42;;;;;;;7.70;3.33;;;;;;;22.16;79.86;100344.66;5004169;58;1138864;-80
2021/07/12 18:12:48;;;;;;;8.08;4.40;;;;;;;22.04;80.71;100360.03;4946711;58;1138884;-81
2021/07/12 18:17:54;;;;;;;8.38;5.58;;;;;;;22.04;80.92;100369.45;4942265;58;1138882;-81
2021/07/12 18:23:00;;;;;;;6.53;4.22;;;;;;;22.04;81.08;100369.45;4942007;57;1138964;-80
2021/07/12 18:28:09;;;;;;;5.80;3.65;;;;;;;22.08;81.09;100372.59;4942114;58;1138961;-83
2021/07/12 18:33:13;;;;;;;6.42;3.62;;;;;;;22.04;81.08;100371.31;4964753;58;1138850;-86
2021/07/12 18:38:22;;;;;;;7.00;3.90;;;;;;;21.83;80.58;100371.36;4974485;58;1139036;-80
2021/07/12 18:43:27;;;;;;;13.35;4.03;;;;;;;21.71;81.11;100383.15;5023444;58;1138809;-83
2021/07/12 18:48:33;;;;;;;12.40;4.50;;;;;;;21.69;81.60;100386.03;4953808;58;1140963;-80
2021/07/12 18:53:39;;;;;;;6.25;4.62;;;;;;;21.71;81.78;100379.95;4939985;58;1140954;-78
2021/07/12 18:58:44;;;;;;;7.33;5.30;;;;;;;21.78;81.85;100392.64;4985856;58;1138727;-81
2021/07/12 19:03:50;;;;;;;6.57;5.30;;;;;;;21.83;81.78;100406.36;4979188;58;1138717;-83
2021/07/12 19:08:55;;;;;;;8.00;5.65;;;;;;;21.78;81.49;100406.94;4941229;59;1138984;-78
2021/07/12 19:14:04;;;;;;;6.62;5.42;;;;;;;21.74;81.71;100414.56;5002346;57;1138718;-82
2021/07/12 19:19:09;;;;;;;13.13;6.15;;;;;;;21.61;81.25;100413.61;4950725;58;1138643;-81
2021/07/12 19:24:15;;;;;;;13.32;6.15;;;;;;;21.50;81.39;100410.10;4950379;59;1140750;-78
2021/07/12 19:29:21;;;;;;;8.50;6.47;;;;;;;21.46;81.69;100406.13;4944621;59;1141031;-80
2021/07/12 19:34:29;;;;;;;9.55;6.42;;;;;;;21.47;82.05;100407.78;4941555;59;1138992;-79
2021/07/12 19:39:34;;;;;;;15.80;6.28;;;;;;;21.54;81.94;100405.47;4745089;60;1139167;-80
2021/07/12 19:44:39;;;;;;;8.58;5.85;;;;;;;21.46;81.47;100396.70;4758316;60;1141171;-77
2021/07/12 19:49:45;;;;;;;15.78;7.67;;;;;;;21.27;81.50;100397.66;4744661;60;1138884;-80
2021/07/12 19:54:50;;;;;;;8.03;6.33;;;;;;;21.19;81.85;100402.30;4764409;60;1140861;-77
2021/07/12 19:59:56;;;;;;;15.95;6.95;;;;;;;21.13;81.85;100419.19;4768291;59;1138954;-89
2021/07/12 20:05:01;;;;;;;14.98;7.80;;;;;;;20.99;81.91;100428.96;4927240;58;1141049;-85
2021/07/12 20:10:10;;;;;;;14.83;8.03;;;;;;;20.86;82.12;100433.67;4960298;58;1140804;-82
2021/07/12 20:15:15;;;;;;;17.17;8.68;;;;;;;20.85;82.79;100431.16;4965884;58;1140776;-83
2021/07/12 20:20:26;;;;;;;18.32;9.40;;;;;;;20.95;83.05;100427.16;4987682;58;1140791;-87
2021/07/12 20:25:32;;;;;;;12.85;9.50;;;;;;;21.07;83.04;100428.87;4977022;58;1140806;-80
2021/07/12 20:30:39;;;;;;;16.90;9.56;;;;;;;21.16;83.08;100426.88;4995096;58;1140820;-85
2021/07/12 20:35:45;;;;;;;15.00;9.25;;;;;;;21.20;82.84;100425.52;4966018;58;1140730;-82
2021/07/12 20:40:50;;;;;;;17.55;8.33;;;;;;;21.16;82.56;100418.30;5015866;58;1140977;-92
2021/07/12 20:45:56;;;;;;;15.53;9.45;;;;;;;21.15;82.39;100427.91;4959737;58;1141132;-89
2021/07/12 20:51:02;;;;;;;16.52;9.28;;;;;;;21.08;82.25;100422.47;5020441;56;1140808;-80
2021/07/12 20:56:08;;;;;;;13.50;9.03;;;;;;;21.04;82.36;100422.52;4992262;58;1140809;-87
2021/07/12 21:01:15;;;;;;;17.62;9.73;;;;;;;21.04;82.51;100417.14;4991447;58;1140779;-82
2021/07/12 21:06:21;;;;;;;16.35;10.15;;;;;;;21.00;82.50;100411.80;4996279;58;1140840;-84
2021/07/12 21:11:27;;;;;;;16.17;10.40;;;;;;;20.93;82.44;100413.59;4994682;58;1143061;-89
2021/07/12 21:16:32;;;;;;;20.10;11.63;;;;;;;20.82;82.41;100412.20;4950863;58;1143034;-88
2021/07/12 21:21:38;;;;;;;16.75;10.72;;;;;;;20.77;82.49;100404.41;4967428;58;1143103;-88
2021/07/12 21:26:44;;;;;;;27.00;12.03;;;;;;;20.77;82.69;100405.75;4979594;58;1143033;-88
2021/07/12 21:31:49;;;;;;;18.05;12.90;;;;;;;20.78;82.70;100414.94;4970569;56;1142864;-86
2021/07/12 21:36:55;;;;;;;26.52;14.63;;;;;;;20.76;82.61;100422.89;4988601;56;1142878;-85
2021/07/12 21:42:01;;;;;;;25.85;15.05;;;;;;;20.66;82.57;100430.72;4986940;57;1142953;-88
2021/07/12 21:47:06;;;;;;;19.90;12.73;;;;;;;20.58;82.61;100438.05;4962975;57;1142973;-84
2021/07/12 21:52:13;;;;;;;29.40;12.50;;;;;;;20.51;82.62;100435.77;4898281;59;1142805;-84
2021/07/12 21:57:18;;;;;;;20.82;12.95;;;;;;;20.46;82.85;100435.52;4898570;59;1143081;-83
2021/07/12 22:02:24;;;;;;;24.80;12.75;;;;;;;20.38;82.87;100438.27;4948845;58;1143045;-83
2021/07/12 22:07:30;;;;;;;17.50;12.20;;;;;;;20.34;83.11;100439.11;4947352;58;1143069;-82
2021/07/12 22:12:36;;;;;;;16.97;12.05;;;;;;;20.30;83.24;100426.58;5040451;57;1142927;-86
2021/07/12 22:17:48;;;;;;;26.47;12.50;;;;;;;20.22;83.49;100418.59;5055670;57;1143046;-86
2021/07/12 22:22:59;;;;;;;21.23;12.50;;;;;;;20.28;83.66;100429.12;5056227;57;1142985;-81
2021/07/12 22:28:08;;;;;;;24.67;11.33;;;;;;;20.29;83.49;100429.45;5056008;56;1143001;-86
2021/07/12 22:33:17;;;;;;;21.90;10.53;;;;;;;20.29;83.46;100432.13;5056339;56;1142802;-84
2021/07/12 22:38:24;;;;;;;24.23;11.55;;;;;;;20.29;83.42;100432.97;5055751;56;1142857;-84
2021/07/12 22:43:30;;;;;;;23.75;13.15;;;;;;;20.28;83.40;100437.17;5035217;56;1143193;-82
2021/07/12 22:48:36;;;;;;;24.55;14.85;;;;;;;20.24;83.45;100439.90;4996944;57;1143039;-88
2021/07/12 22:53:42;;;;;;;28.90;12.47;;;;;;;20.20;83.64;100429.19;4983477;57;1142985;-86
2021/07/12 22:58:48;;;;;;;34.77;13.00;;;;;;;20.20;83.57;100425.99;4983237;57;1143196;-79
2021/07/12 23:03:55;;;;;;;27.93;12.45;;;;;;;20.19;83.50;100416.78;4983029;57;1142889;-78
2021/07/12 23:09:01;;;;;;;23.32;11.60;;;;;;;20.11;83.64;100413.68;4983500;57;1142881;-87
2021/07/12 23:14:07;;;;;;;24.55;12.10;;;;;;;20.10;83.82;100403.12;4964105;58;1143014;-86
2021/07/12 23:19:12;;;;;;;23.05;13.72;;;;;;;20.10;83.87;100394.55;4939707;58;1142968;-84
2021/07/12 23:24:18;;;;;;;28.12;14.45;;;;;;;20.07;83.88;100388.20;4941310;58;1142982;-82
